sensor_id;sensor_type;location;lat;lon;timestamp;pressure;altitude;pressure_sealevel;temperature;humidity
56182;BME280;51963;46.052;14.544;2022-11-03T00:01:10;98922.03;;;13.38;100.00
56182;BME280;51963;46.052;14.544;2022-11-03T00:03:36;98926.03;;;13.27;100.00
56182;BME280;51963;46.052;14.544;2022-11-03T00:06:02;98914.38;;;13.28;100.00
56182;BME280;51963;46.052;14.544;2022-11-03T00:08:41;98917.75;;;13.37;100.00
56182;BME280;51963;46.052;14.544;2022-11-03T00:11:09;98923.94;;;13.23;100.00
56182;BME280;51963;46.052;14.544;2022-11-03T00:13:37;98910.19;;;13.41;100.00
56182;BME280;51963;46.052;14.544;2022-11-03T00:16:03;98914.78;;;13.25;100.00
56182;BME280;51963;46.052;14.544;2022-11-03T00:18:29;98922.88;;;13.17;100.00
56182;BME280;51963;46.052;14.544;2022-11-03T00:21:04;98926.09;;;13.12;100.00
56182;BME280;51963;46.052;14.544;2022-11-03T00:23:36;98929.31;;;13.08;100.00
56182;BME280;51963;46.052;14.544;2022-11-03T00:26:26;98927.03;;;13.26;100.00
56182;BME280;51963;46.052;14.544;2022-11-03T00:28:58;98927.16;;;13.18;100.00
56182;BME280;51963;46.052;14.544;2022-11-03T00:31:33;98926.53;;;13.16;100.00
56182;BME280;51963;46.052;14.544;2022-11-03T00:34:00;98929.00;;;13.17;100.00
56182;BME280;51963;46.052;14.544;2022-11-03T00:36:32;98926.66;;;13.08;100.00
56182;BME280;51963;46.052;14.544;2022-11-03T00:38:58;98931.34;;;13.05;100.00
56182;BME280;51963;46.052;14.544;2022-11-03T00:41:25;98927.94;;;13.12;100.00
56182;BME280;51963;46.052;14.544;2022-11-03T00:43:51;98926.03;;;13.05;100.00
56182;BME280;51963;46.052;14.544;2022-11-03T00:46:19;98923.06;;;12.94;100.00
56182;BME280;51963;46.052;14.544;2022-11-03T00:48:45;98925.66;;;12.87;100.00
56182;BME280;51963;46.052;14.544;2022-11-03T00:51:17;98912.38;;;12.87;100.00
56182;BME280;51963;46.052;14.544;2022-11-03T00:53:54;98930.59;;;13.12;100.00
56182;BME280;51963;46.052;14.544;2022-11-03T00:56:22;98919.38;;;13.38;100.00
56182;BME280;51963;46.052;14.544;2022-11-03T00:58:49;98927.91;;;13.33;100.00
56182;BME280;51963;46.052;14.544;2022-11-03T01:01:21;98924.91;;;13.15;100.00
56182;BME280;51963;46.052;14.544;2022-11-03T01:03:49;98918.72;;;13.08;100.00
56182;BME280;51963;46.052;14.544;2022-11-03T01:06:38;98916.19;;;12.99;100.00
56182;BME280;51963;46.052;14.544;2022-11-03T01:14:30;98900.84;;;13.45;100.00
56182;BME280;51963;46.052;14.544;2022-11-03T01:16:56;98898.06;;;13.53;100.00
56182;BME280;51963;46.052;14.544;2022-11-03T01:19:22;98899.53;;;13.56;100.00
56182;BME280;51963;46.052;14.544;2022-11-03T01:21:53;98905.53;;;13.43;100.00
56182;BME280;51963;46.052;14.544;2022-11-03T01:24:18;98893.34;;;13.27;100.00
56182;BME280;51963;46.052;14.544;2022-11-03T01:26:44;98897.69;;;13.34;100.00
56182;BME280;51963;46.052;14.544;2022-11-03T01:29:11;98900.25;;;13.21;100.00
56182;BME280;51963;46.052;14.544;2022-11-03T01:31:37;98890.91;;;13.03;100.00
56182;BME280;51963;46.052;14.544;2022-11-03T01:34:03;98891.22;;;12.94;100.00
56182;BME280;51963;46.052;14.544;2022-11-03T01:36:31;98884.72;;;12.96;100.00
56182;BME280;51963;46.052;14.544;2022-11-03T01:38:57;98882.22;;;13.38;100.00
56182;BME280;51963;46.052;14.544;2022-11-03T01:41:25;98879.66;;;13.52;100.00
56182;BME280;51963;46.052;14.544;2022-11-03T01:44:30;98883.84;;;13.39;100.00
56182;BME280;51963;46.052;14.544;2022-11-03T01:47:14;98876.75;;;13.25;100.00
56182;BME280;51963;46.052;14.544;2022-11-03T01:49:50;98885.22;;;13.06;100.00
56182;BME280;51963;46.052;14.544;2022-11-03T01:52:36;98886.59;;;13.02;100.00
56182;BME280;51963;46.052;14.544;2022-11-03T01:55:10;98884.38;;;13.06;100.00
56182;BME280;51963;46.052;14.544;2022-11-03T01:57:49;98885.78;;;13.02;100.00
56182;BME280;51963;46.052;14.544;2022-11-03T02:00:16;98874.97;;;13.03;100.00
56182;BME280;51963;46.052;14.544;2022-11-03T02:02:42;98868.16;;;12.94;100.00
56182;BME280;51963;46.052;14.544;2022-11-03T02:05:12;98865.88;;;12.91;100.00
56182;BME280;51963;46.052;14.544;2022-11-03T02:07:49;98869.56;;;12.90;100.00
56182;BME280;51963;46.052;14.544;2022-11-03T02:10:17;98868.34;;;12.93;100.00
56182;BME280;51963;46.052;14.544;2022-11-03T02:12:43;98868.16;;;12.94;100.00
56182;BME280;51963;46.052;14.544;2022-11-03T02:15:11;98864.50;;;12.95;100.00
56182;BME280;51963;46.052;14.544;2022-11-03T02:17:38;98864.66;;;12.94;100.00
56182;BME280;51963;46.052;14.544;2022-11-03T02:20:17;98863.88;;;12.93;100.00
56182;BME280;51963;46.052;14.544;2022-11-03T02:28:10;98858.59;;;13.00;100.00
56182;BME280;51963;46.052;14.544;2022-11-03T02:30:50;98850.38;;;12.95;100.00
56182;BME280;51963;46.052;14.544;2022-11-03T02:33:29;98854.13;;;13.00;100.00
56182;BME280;51963;46.052;14.544;2022-11-03T02:36:17;98858.97;;;12.97;100.00
56182;BME280;51963;46.052;14.544;2022-11-03T02:39:10;98857.72;;;12.93;100.00
56182;BME280;51963;46.052;14.544;2022-11-03T02:41:34;98856.97;;;12.99;100.00
56182;BME280;51963;46.052;14.544;2022-11-03T02:44:03;98850.00;;;12.98;100.00
56182;BME280;51963;46.052;14.544;2022-11-03T02:46:30;98847.94;;;12.93;100.00
56182;BME280;51963;46.052;14.544;2022-11-03T02:48:57;98848.31;;;12.90;100.00
56182;BME280;51963;46.052;14.544;2022-11-03T02:51:23;98847.91;;;13.15;100.00
56182;BME280;51963;46.052;14.544;2022-11-03T02:54:01;98849.09;;;13.41;100.00
56182;BME280;51963;46.052;14.544;2022-11-03T02:56:30;98848.59;;;13.52;100.00
56182;BME280;51963;46.052;14.544;2022-11-03T02:59:02;98840.91;;;13.35;100.00
56182;BME280;51963;46.052;14.544;2022-11-03T03:01:35;98847.84;;;13.37;100.00
56182;BME280;51963;46.052;14.544;2022-11-03T03:04:26;98850.22;;;13.25;100.00
56182;BME280;51963;46.052;14.544;2022-11-03T03:07:00;98847.91;;;13.15;100.00
56182;BME280;51963;46.052;14.544;2022-11-03T03:09:31;98839.47;;;13.04;100.00
56182;BME280;51963;46.052;14.544;2022-11-03T03:12:01;98848.69;;;13.09;100.00
56182;BME280;51963;46.052;14.544;2022-11-03T03:14:36;98846.44;;;13.12;100.00
56182;BME280;51963;46.052;14.544;2022-11-03T03:17:27;98836.94;;;12.96;100.00
56182;BME280;51963;46.052;14.544;2022-11-03T03:19:59;98834.22;;;12.89;100.00
56182;BME280;51963;46.052;14.544;2022-11-03T03:25:02;98832.25;;;12.98;100.00
56182;BME280;51963;46.052;14.544;2022-11-03T03:27:32;98837.28;;;13.15;100.00
56182;BME280;51963;46.052;14.544;2022-11-03T03:30:03;98831.91;;;13.08;100.00
56182;BME280;51963;46.052;14.544;2022-11-03T03:32:34;98832.69;;;13.02;100.00
56182;BME280;51963;46.052;14.544;2022-11-03T03:35:01;98832.75;;;13.09;100.00
56182;BME280;51963;46.052;14.544;2022-11-03T03:37:34;98820.19;;;12.96;100.00
56182;BME280;51963;46.052;14.544;2022-11-03T03:40:35;98829.59;;;12.98;100.00
56182;BME280;51963;46.052;14.544;2022-11-03T03:43:04;98837.25;;;12.86;100.00
56182;BME280;51963;46.052;14.544;2022-11-03T03:45:31;98829.00;;;12.74;100.00
56182;BME280;51963;46.052;14.544;2022-11-03T03:47:58;98832.03;;;12.71;100.00
56182;BME280;51963;46.052;14.544;2022-11-03T03:50:26;98830.94;;;12.66;100.00
56182;BME280;51963;46.052;14.544;2022-11-03T03:52:56;98830.13;;;12.65;100.00
56182;BME280;51963;46.052;14.544;2022-11-03T03:55:25;98831.31;;;12.62;100.00
56182;BME280;51963;46.052;14.544;2022-11-03T03:57:56;98824.97;;;12.57;100.00
56182;BME280;51963;46.052;14.544;2022-11-03T04:00:22;98829.63;;;12.55;100.00
56182;BME280;51963;46.052;14.544;2022-11-03T04:02:47;98817.13;;;12.49;100.00
56182;BME280;51963;46.052;14.544;2022-11-03T04:05:13;98825.50;;;12.52;100.00
56182;BME280;51963;46.052;14.544;2022-11-03T04:07:38;98826.34;;;12.53;100.00
56182;BME280;51963;46.052;14.544;2022-11-03T04:10:18;98827.28;;;12.67;100.00
56182;BME280;51963;46.052;14.544;2022-11-03T04:12:45;98819.41;;;12.73;100.00
56182;BME280;51963;46.052;14.544;2022-11-03T04:15:30;98813.50;;;12.78;100.00
56182;BME280;51963;46.052;14.544;2022-11-03T04:18:17;98815.59;;;12.83;100.00
56182;BME280;51963;46.052;14.544;2022-11-03T04:21:01;98809.47;;;12.82;100.00
56182;BME280;51963;46.052;14.544;2022-11-03T04:23:46;98804.09;;;12.75;100.00
56182;BME280;51963;46.052;14.544;2022-11-03T04:26:14;98809.81;;;12.72;100.00
56182;BME280;51963;46.052;14.544;2022-11-03T04:28:40;98800.19;;;12.71;100.00
56182;BME280;51963;46.052;14.544;2022-11-03T04:31:14;98794.69;;;12.73;100.00
56182;BME280;51963;46.052;14.544;2022-11-03T04:33:41;98799.69;;;12.83;100.00
56182;BME280;51963;46.052;14.544;2022-11-03T04:38:38;98804.59;;;12.86;100.00
56182;BME280;51963;46.052;14.544;2022-11-03T04:41:20;98808.69;;;12.88;100.00
56182;BME280;51963;46.052;14.544;2022-11-03T04:43:48;98800.47;;;12.83;100.00
56182;BME280;51963;46.052;14.544;2022-11-03T04:46:17;98803.34;;;12.82;100.00
56182;BME280;51963;46.052;14.544;2022-11-03T04:48:48;98802.47;;;12.74;100.00
56182;BME280;51963;46.052;14.544;2022-11-03T04:51:17;98795.84;;;12.64;100.00
56182;BME280;51963;46.052;14.544;2022-11-03T04:53:49;98789.09;;;12.61;100.00
56182;BME280;51963;46.052;14.544;2022-11-03T04:56:19;98782.28;;;12.52;100.00
56182;BME280;51963;46.052;14.544;2022-11-03T04:58:45;98788.47;;;12.59;100.00
56182;BME280;51963;46.052;14.544;2022-11-03T05:01:14;98779.50;;;12.60;100.00
56182;BME280;51963;46.052;14.544;2022-11-03T05:03:42;98781.19;;;12.68;100.00
56182;BME280;51963;46.052;14.544;2022-11-03T05:06:26;98787.09;;;12.91;100.00
56182;BME280;51963;46.052;14.544;2022-11-03T05:08:55;98794.50;;;13.03;100.00
56182;BME280;51963;46.052;14.544;2022-11-03T05:11:41;98798.72;;;13.19;100.00
56182;BME280;51963;46.052;14.544;2022-11-03T05:14:14;98786.75;;;13.01;100.00
56182;BME280;51963;46.052;14.544;2022-11-03T05:16:40;98791.19;;;12.94;100.00
56182;BME280;51963;46.052;14.544;2022-11-03T05:19:25;98792.53;;;13.12;100.00
56182;BME280;51963;46.052;14.544;2022-11-03T05:21:53;98789.69;;;13.13;100.00
56182;BME280;51963;46.052;14.544;2022-11-03T05:24:20;98787.16;;;12.98;100.00
56182;BME280;51963;46.052;14.544;2022-11-03T05:26:50;98781.53;;;12.86;100.00
56182;BME280;51963;46.052;14.544;2022-11-03T05:29:31;98779.72;;;12.87;100.00
56182;BME280;51963;46.052;14.544;2022-11-03T05:31:59;98782.75;;;12.84;100.00
56182;BME280;51963;46.052;14.544;2022-11-03T05:34:45;98780.47;;;12.81;100.00
56182;BME280;51963;46.052;14.544;2022-11-03T05:37:31;98783.00;;;12.89;100.00
56182;BME280;51963;46.052;14.544;2022-11-03T05:39:59;98778.28;;;13.19;100.00
56182;BME280;51963;46.052;14.544;2022-11-03T05:42:45;98784.03;;;13.23;100.00
56182;BME280;51963;46.052;14.544;2022-11-03T05:45:20;98782.47;;;13.35;100.00
56182;BME280;51963;46.052;14.544;2022-11-03T05:47:47;98773.38;;;13.16;100.00
56182;BME280;51963;46.052;14.544;2022-11-03T05:50:25;98784.09;;;13.30;100.00
56182;BME280;51963;46.052;14.544;2022-11-03T05:55:46;98785.13;;;13.00;100.00
56182;BME280;51963;46.052;14.544;2022-11-03T05:58:36;98794.81;;;13.15;100.00
56182;BME280;51963;46.052;14.544;2022-11-03T06:01:25;98790.03;;;13.03;100.00
56182;BME280;51963;46.052;14.544;2022-11-03T06:03:53;98794.47;;;12.96;100.00
56182;BME280;51963;46.052;14.544;2022-11-03T06:06:28;98800.16;;;12.93;100.00
56182;BME280;51963;46.052;14.544;2022-11-03T06:08:56;98802.00;;;12.93;100.00
56182;BME280;51963;46.052;14.544;2022-11-03T06:11:30;98803.22;;;12.90;100.00
56182;BME280;51963;46.052;14.544;2022-11-03T06:14:00;98799.47;;;12.84;100.00
56182;BME280;51963;46.052;14.544;2022-11-03T06:16:43;98800.94;;;12.87;100.00
56182;BME280;51963;46.052;14.544;2022-11-03T06:19:20;98802.19;;;12.91;100.00
56182;BME280;51963;46.052;14.544;2022-11-03T06:21:48;98803.00;;;12.91;100.00
56182;BME280;51963;46.052;14.544;2022-11-03T06:24:14;98808.94;;;13.22;100.00
56182;BME280;51963;46.052;14.544;2022-11-03T06:26:41;98801.47;;;13.32;100.00
56182;BME280;51963;46.052;14.544;2022-11-03T06:29:13;98807.44;;;13.41;100.00
56182;BME280;51963;46.052;14.544;2022-11-03T06:31:42;98806.72;;;13.54;100.00
56182;BME280;51963;46.052;14.544;2022-11-03T06:34:36;98812.28;;;13.59;100.00
56182;BME280;51963;46.052;14.544;2022-11-03T06:37:17;98819.91;;;13.76;100.00
56182;BME280;51963;46.052;14.544;2022-11-03T06:39:43;98811.09;;;13.69;100.00
56182;BME280;51963;46.052;14.544;2022-11-03T06:42:13;98814.22;;;13.44;100.00
56182;BME280;51963;46.052;14.544;2022-11-03T06:44:41;98811.47;;;13.30;100.00
56182;BME280;51963;46.052;14.544;2022-11-03T06:47:20;98808.19;;;13.28;100.00
56182;BME280;51963;46.052;14.544;2022-11-03T06:49:56;98811.84;;;13.27;100.00
56182;BME280;51963;46.052;14.544;2022-11-03T06:52:28;98805.81;;;13.40;100.00
56182;BME280;51963;46.052;14.544;2022-11-03T06:57:36;98797.94;;;13.25;100.00
56182;BME280;51963;46.052;14.544;2022-11-03T07:05:21;98805.38;;;13.72;100.00
56182;BME280;51963;46.052;14.544;2022-11-03T07:07:47;98799.44;;;13.70;100.00
56182;BME280;51963;46.052;14.544;2022-11-03T07:10:13;98802.16;;;13.76;100.00
56182;BME280;51963;46.052;14.544;2022-11-03T07:12:40;98804.41;;;13.86;100.00
56182;BME280;51963;46.052;14.544;2022-11-03T07:15:18;98806.28;;;13.92;100.00
56182;BME280;51963;46.052;14.544;2022-11-03T07:17:46;98802.03;;;13.98;100.00
56182;BME280;51963;46.052;14.544;2022-11-03T07:20:14;98803.84;;;13.98;100.00
56182;BME280;51963;46.052;14.544;2022-11-03T07:22:42;98811.13;;;13.75;100.00
56182;BME280;51963;46.052;14.544;2022-11-03T07:25:14;98810.97;;;13.90;100.00
56182;BME280;51963;46.052;14.544;2022-11-03T07:27:40;98812.22;;;13.94;100.00
56182;BME280;51963;46.052;14.544;2022-11-03T07:32:33;98798.66;;;14.31;100.00
56182;BME280;51963;46.052;14.544;2022-11-03T07:35:28;98799.00;;;14.21;100.00
56182;BME280;51963;46.052;14.544;2022-11-03T07:37:55;98798.81;;;14.30;100.00
56182;BME280;51963;46.052;14.544;2022-11-03T07:40:24;98797.84;;;14.37;100.00
56182;BME280;51963;46.052;14.544;2022-11-03T07:42:50;98795.59;;;14.55;100.00
56182;BME280;51963;46.052;14.544;2022-11-03T07:48:23;98780.50;;;14.89;100.00
56182;BME280;51963;46.052;14.544;2022-11-03T07:50:50;98765.50;;;14.61;100.00
56182;BME280;51963;46.052;14.544;2022-11-03T07:53:39;98761.66;;;14.84;100.00
56182;BME280;51963;46.052;14.544;2022-11-03T07:56:24;98748.16;;;14.78;100.00
56182;BME280;51963;46.052;14.544;2022-11-03T07:58:54;98767.16;;;15.02;100.00
56182;BME280;51963;46.052;14.544;2022-11-03T08:01:37;98762.66;;;15.09;100.00
56182;BME280;51963;46.052;14.544;2022-11-03T08:04:06;98750.53;;;15.34;100.00
56182;BME280;51963;46.052;14.544;2022-11-03T08:06:32;98755.84;;;15.34;100.00
56182;BME280;51963;46.052;14.544;2022-11-03T08:08:58;98750.38;;;15.02;100.00
56182;BME280;51963;46.052;14.544;2022-11-03T08:11:24;98741.56;;;15.08;100.00
56182;BME280;51963;46.052;14.544;2022-11-03T08:13:50;98741.84;;;15.52;100.00
56182;BME280;51963;46.052;14.544;2022-11-03T08:16:17;98743.00;;;15.69;100.00
56182;BME280;51963;46.052;14.544;2022-11-03T08:18:43;98743.41;;;15.73;100.00
56182;BME280;51963;46.052;14.544;2022-11-03T08:21:09;98738.03;;;15.93;100.00
56182;BME280;51963;46.052;14.544;2022-11-03T08:23:35;98736.13;;;16.01;100.00
56182;BME280;51963;46.052;14.544;2022-11-03T08:26:01;98734.84;;;16.10;100.00
56182;BME280;51963;46.052;14.544;2022-11-03T08:28:27;98742.16;;;16.53;100.00
56182;BME280;51963;46.052;14.544;2022-11-03T08:30:53;98727.16;;;16.52;100.00
56182;BME280;51963;46.052;14.544;2022-11-03T08:33:19;98742.75;;;16.55;100.00
56182;BME280;51963;46.052;14.544;2022-11-03T08:35:45;98735.22;;;16.46;100.00
56182;BME280;51963;46.052;14.544;2022-11-03T08:38:10;98730.19;;;16.31;100.00
56182;BME280;51963;46.052;14.544;2022-11-03T08:40:36;98726.75;;;16.23;100.00
56182;BME280;51963;46.052;14.544;2022-11-03T08:43:02;98726.16;;;16.21;100.00
56182;BME280;51963;46.052;14.544;2022-11-03T08:45:29;98716.09;;;16.23;100.00
56182;BME280;51963;46.052;14.544;2022-11-03T08:47:55;98719.53;;;16.31;100.00
56182;BME280;51963;46.052;14.544;2022-11-03T08:50:21;98707.56;;;16.08;100.00
56182;BME280;51963;46.052;14.544;2022-11-03T08:52:47;98702.09;;;16.53;100.00
56182;BME280;51963;46.052;14.544;2022-11-03T08:55:14;98708.44;;;16.78;100.00
56182;BME280;51963;46.052;14.544;2022-11-03T08:57:40;98706.13;;;17.07;100.00
56182;BME280;51963;46.052;14.544;2022-11-03T09:00:06;98701.19;;;17.29;100.00
56182;BME280;51963;46.052;14.544;2022-11-03T09:02:32;98700.06;;;17.18;100.00
56182;BME280;51963;46.052;14.544;2022-11-03T09:04:58;98701.31;;;17.53;100.00
56182;BME280;51963;46.052;14.544;2022-11-03T09:07:24;98694.09;;;17.53;100.00
56182;BME280;51963;46.052;14.544;2022-11-03T09:09:50;98707.97;;;17.93;99.65
56182;BME280;51963;46.052;14.544;2022-11-03T09:12:15;98708.63;;;17.57;99.57
56182;BME280;51963;46.052;14.544;2022-11-03T09:14:41;98708.22;;;17.23;100.00
56182;BME280;51963;46.052;14.544;2022-11-03T09:17:07;98700.19;;;16.61;100.00
56182;BME280;51963;46.052;14.544;2022-11-03T09:19:33;98702.34;;;16.96;100.00
56182;BME280;51963;46.052;14.544;2022-11-03T09:21:58;98700.00;;;16.81;100.00
56182;BME280;51963;46.052;14.544;2022-11-03T09:24:25;98696.28;;;17.07;100.00
56182;BME280;51963;46.052;14.544;2022-11-03T09:26:51;98692.72;;;17.13;100.00
56182;BME280;51963;46.052;14.544;2022-11-03T09:29:16;98694.50;;;16.76;100.00
56182;BME280;51963;46.052;14.544;2022-11-03T09:31:42;98691.22;;;16.30;100.00
56182;BME280;51963;46.052;14.544;2022-11-03T09:34:08;98684.78;;;16.37;100.00
56182;BME280;51963;46.052;14.544;2022-11-03T09:36:34;98682.13;;;16.81;100.00
56182;BME280;51963;46.052;14.544;2022-11-03T09:38:59;98679.28;;;17.01;100.00
56182;BME280;51963;46.052;14.544;2022-11-03T09:41:25;98672.75;;;16.97;100.00
56182;BME280;51963;46.052;14.544;2022-11-03T09:43:51;98676.16;;;17.05;100.00
56182;BME280;51963;46.052;14.544;2022-11-03T09:46:18;98674.72;;;16.83;100.00
56182;BME280;51963;46.052;14.544;2022-11-03T09:48:44;98673.78;;;16.52;100.00
56182;BME280;51963;46.052;14.544;2022-11-03T09:51:13;98670.69;;;16.30;100.00
56182;BME280;51963;46.052;14.544;2022-11-03T09:53:41;98668.59;;;16.57;100.00
56182;BME280;51963;46.052;14.544;2022-11-03T09:56:09;98650.25;;;16.86;100.00
56182;BME280;51963;46.052;14.544;2022-11-03T09:58:35;98659.72;;;17.57;99.46
56182;BME280;51963;46.052;14.544;2022-11-03T10:01:01;98658.72;;;17.70;94.05
56182;BME280;51963;46.052;14.544;2022-11-03T10:03:28;98655.13;;;17.76;93.30
56182;BME280;51963;46.052;14.544;2022-11-03T10:05:54;98641.59;;;17.59;93.00
56182;BME280;51963;46.052;14.544;2022-11-03T10:08:28;98645.50;;;16.89;99.28
56182;BME280;51963;46.052;14.544;2022-11-03T10:10:55;98632.63;;;16.60;99.17
56182;BME280;51963;46.052;14.544;2022-11-03T10:13:32;98634.53;;;16.78;97.98
56182;BME280;51963;46.052;14.544;2022-11-03T10:16:04;98626.16;;;17.12;93.76
56182;BME280;51963;46.052;14.544;2022-11-03T10:18:32;98623.84;;;17.34;91.73
56182;BME280;51963;46.052;14.544;2022-11-03T10:21:03;98620.53;;;17.51;91.79
56182;BME280;51963;46.052;14.544;2022-11-03T10:23:29;98613.69;;;17.55;93.92
56182;BME280;51963;46.052;14.544;2022-11-03T10:26:10;98611.50;;;17.64;90.96
56182;BME280;51963;46.052;14.544;2022-11-03T10:28:36;98602.84;;;17.19;94.52
56182;BME280;51963;46.052;14.544;2022-11-03T10:31:16;98607.81;;;17.34;93.47
56182;BME280;51963;46.052;14.544;2022-11-03T10:33:54;98593.84;;;17.32;92.58
56182;BME280;51963;46.052;14.544;2022-11-03T10:36:24;98596.28;;;17.34;94.94
56182;BME280;51963;46.052;14.544;2022-11-03T10:38:51;98593.75;;;17.69;91.73
56182;BME280;51963;46.052;14.544;2022-11-03T10:41:22;98582.25;;;17.93;90.88
56182;BME280;51963;46.052;14.544;2022-11-03T10:44:15;98579.88;;;18.03;90.54
56182;BME280;51963;46.052;14.544;2022-11-03T10:46:58;98582.44;;;18.10;89.74
56182;BME280;51963;46.052;14.544;2022-11-03T10:49:25;98575.81;;;18.12;87.93
56182;BME280;51963;46.052;14.544;2022-11-03T10:51:53;98568.44;;;17.96;88.61
56182;BME280;51963;46.052;14.544;2022-11-03T10:54:21;98563.09;;;17.84;90.58
56182;BME280;51963;46.052;14.544;2022-11-03T10:56:48;98567.44;;;18.21;88.76
56182;BME280;51963;46.052;14.544;2022-11-03T10:59:20;98553.81;;;18.46;88.89
56182;BME280;51963;46.052;14.544;2022-11-03T11:01:46;98555.28;;;18.77;88.11
56182;BME280;51963;46.052;14.544;2022-11-03T11:04:16;98556.06;;;18.90;85.86
56182;BME280;51963;46.052;14.544;2022-11-03T11:06:43;98557.06;;;18.48;89.79
56182;BME280;51963;46.052;14.544;2022-11-03T11:09:11;98543.97;;;19.16;86.88
56182;BME280;51963;46.052;14.544;2022-11-03T11:11:37;98542.81;;;19.24;83.96
56182;BME280;51963;46.052;14.544;2022-11-03T11:14:33;98535.38;;;18.73;86.94
56182;BME280;51963;46.052;14.544;2022-11-03T11:17:01;98526.88;;;18.76;86.05
56182;BME280;51963;46.052;14.544;2022-11-03T11:19:29;98524.47;;;18.51;86.62
56182;BME280;51963;46.052;14.544;2022-11-03T11:32:58;98507.69;;;19.26;82.88
56182;BME280;51963;46.052;14.544;2022-11-03T11:37:51;98499.38;;;19.10;83.75
56182;BME280;51963;46.052;14.544;2022-11-03T11:51:33;98463.09;;;18.61;85.99
56182;BME280;51963;46.052;14.544;2022-11-03T11:54:04;98463.09;;;18.61;87.30
56182;BME280;51963;46.052;14.544;2022-11-03T11:56:31;98462.59;;;18.76;86.25
56182;BME280;51963;46.052;14.544;2022-11-03T11:58:57;98460.13;;;18.75;86.19
56182;BME280;51963;46.052;14.544;2022-11-03T12:01:26;98459.19;;;18.52;87.08
56182;BME280;51963;46.052;14.544;2022-11-03T12:04:24;98454.31;;;18.78;86.87
56182;BME280;51963;46.052;14.544;2022-11-03T12:06:51;98438.91;;;18.85;86.48
56182;BME280;51963;46.052;14.544;2022-11-03T12:09:19;98444.84;;;18.58;88.25
56182;BME280;51963;46.052;14.544;2022-11-03T12:11:50;98437.94;;;18.62;87.79
56182;BME280;51963;46.052;14.544;2022-11-03T12:14:25;98432.38;;;18.93;84.53
56182;BME280;51963;46.052;14.544;2022-11-03T12:17:29;98418.06;;;19.33;82.80
56182;BME280;51963;46.052;14.544;2022-11-03T12:19:49;98405.38;;;19.29;81.99
56182;BME280;51963;46.052;14.544;2022-11-03T12:24:54;98410.16;;;19.27;81.29
56182;BME280;51963;46.052;14.544;2022-11-03T12:29:57;98406.56;;;19.04;83.86
56182;BME280;51963;46.052;14.544;2022-11-03T12:32:24;98390.22;;;18.88;84.49
56182;BME280;51963;46.052;14.544;2022-11-03T12:34:49;98391.91;;;19.41;80.75
56182;BME280;51963;46.052;14.544;2022-11-03T12:37:15;98384.72;;;19.46;79.95
56182;BME280;51963;46.052;14.544;2022-11-03T12:39:41;98376.94;;;19.28;80.96
56182;BME280;51963;46.052;14.544;2022-11-03T12:42:07;98374.44;;;19.21;81.58
56182;BME280;51963;46.052;14.544;2022-11-03T12:44:32;98373.03;;;19.53;81.98
56182;BME280;51963;46.052;14.544;2022-11-03T12:46:59;98366.59;;;19.71;81.57
56182;BME280;51963;46.052;14.544;2022-11-03T12:49:25;98369.59;;;20.19;80.06
56182;BME280;51963;46.052;14.544;2022-11-03T12:51:51;98364.66;;;19.88;79.78
56182;BME280;51963;46.052;14.544;2022-11-03T12:54:17;98358.53;;;18.68;82.81
56182;BME280;51963;46.052;14.544;2022-11-03T12:56:42;98358.28;;;18.99;84.88
56182;BME280;51963;46.052;14.544;2022-11-03T12:59:08;98353.22;;;19.19;83.19
56182;BME280;51963;46.052;14.544;2022-11-03T13:01:34;98346.25;;;18.26;85.58
56182;BME280;51963;46.052;14.544;2022-11-03T13:04:00;98334.72;;;17.85;90.23
56182;BME280;51963;46.052;14.544;2022-11-03T13:06:26;98336.59;;;17.72;89.24
56182;BME280;51963;46.052;14.544;2022-11-03T13:08:52;98335.84;;;18.13;89.08
56182;BME280;51963;46.052;14.544;2022-11-03T13:11:18;98331.94;;;18.96;84.17
56182;BME280;51963;46.052;14.544;2022-11-03T13:14:03;98340.88;;;19.18;82.38
56182;BME280;51963;46.052;14.544;2022-11-03T13:16:32;98329.50;;;20.34;77.04
56182;BME280;51963;46.052;14.544;2022-11-03T13:18:58;98329.16;;;20.53;74.92
56182;BME280;51963;46.052;14.544;2022-11-03T13:21:23;98333.56;;;20.64;74.22
56182;BME280;51963;46.052;14.544;2022-11-03T13:23:49;98329.09;;;20.48;74.02
56182;BME280;51963;46.052;14.544;2022-11-03T13:26:16;98324.66;;;20.31;75.33
56182;BME280;51963;46.052;14.544;2022-11-03T13:28:41;98329.19;;;19.25;78.59
56182;BME280;51963;46.052;14.544;2022-11-03T13:31:07;98319.25;;;19.42;78.63
56182;BME280;51963;46.052;14.544;2022-11-03T13:33:33;98306.47;;;18.93;80.35
56182;BME280;51963;46.052;14.544;2022-11-03T13:35:58;98308.47;;;18.69;81.72
56182;BME280;51963;46.052;14.544;2022-11-03T13:38:24;98308.00;;;19.23;79.78
56182;BME280;51963;46.052;14.544;2022-11-03T13:40:50;98310.34;;;19.19;80.05
56182;BME280;51963;46.052;14.544;2022-11-03T13:43:15;98307.22;;;19.05;80.42
56182;BME280;51963;46.052;14.544;2022-11-03T13:45:41;98298.97;;;18.78;81.15
56182;BME280;51963;46.052;14.544;2022-11-03T13:48:07;98299.25;;;18.47;84.37
56182;BME280;51963;46.052;14.544;2022-11-03T13:50:32;98289.63;;;18.17;85.51
56182;BME280;51963;46.052;14.544;2022-11-03T13:52:58;98288.63;;;18.07;84.81
56182;BME280;51963;46.052;14.544;2022-11-03T13:55:24;98288.97;;;18.10;85.12
56182;BME280;51963;46.052;14.544;2022-11-03T13:57:49;98297.22;;;18.38;83.93
56182;BME280;51963;46.052;14.544;2022-11-03T14:00:15;98294.38;;;18.27;83.82
56182;BME280;51963;46.052;14.544;2022-11-03T14:02:44;98281.28;;;18.14;84.11